createdAt,value
2018-10-16T00:00:13.905Z,15.93
2018-10-16T00:02:42.975Z,12.63
2018-10-16T00:05:11.715Z,14.33
2018-10-16T00:07:40.292Z,14.37
2018-10-16T00:10:09.950Z,17.93
2018-10-16T00:12:38.485Z,15.53
2018-10-16T00:15:08.639Z,16.03
2018-10-16T00:17:37.189Z,15.10
2018-10-16T00:20:06.963Z,12.80
2018-10-16T00:22:35.542Z,17.63
2018-10-16T00:25:04.125Z,14.30
2018-10-16T00:27:32.652Z,13.45
2018-10-16T00:30:01.203Z,13.80
2018-10-16T00:32:29.823Z,14.50
2018-10-16T00:34:58.461Z,14.10
2018-10-16T00:37:26.989Z,12.40
2018-10-16T00:39:55.501Z,13.63
2018-10-16T00:42:24.056Z,16.17
2018-10-16T00:44:52.665Z,13.47
2018-10-16T00:47:21.197Z,13.63
2018-10-16T00:49:49.753Z,13.90
2018-10-16T00:52:18.380Z,13.40
2018-10-16T00:54:46.918Z,13.35
2018-10-16T00:57:15.476Z,13.70
2018-10-16T00:59:44.061Z,14.80
2018-10-16T01:02:12.687Z,18.77
2018-10-16T01:04:41.380Z,11.97
2018-10-16T01:07:09.916Z,14.10
2018-10-16T01:09:38.465Z,14.90
2018-10-16T01:12:07.550Z,14.17
2018-10-16T01:14:36.150Z,16.15
2018-10-16T01:17:05.241Z,13.93
2018-10-16T01:19:33.792Z,12.63
2018-10-16T01:22:02.345Z,13.87
2018-10-16T01:24:30.905Z,13.77
2018-10-16T01:26:59.564Z,16.33
2018-10-16T01:29:28.124Z,12.70
2018-10-16T01:31:56.756Z,14.30
2018-10-16T01:34:25.351Z,15.80
2018-10-16T01:36:54.132Z,15.60
2018-10-16T01:39:22.784Z,14.45
2018-10-16T01:41:51.358Z,13.90
2018-10-16T01:44:19.997Z,16.17
2018-10-16T01:46:48.528Z,14.67
2018-10-16T01:49:17.097Z,17.97
2018-10-16T01:51:45.646Z,14.50
2018-10-16T01:54:14.195Z,15.67
2018-10-16T01:56:42.745Z,14.90
2018-10-16T01:59:11.515Z,14.90
2018-10-16T02:01:40.095Z,13.70
2018-10-16T02:04:08.629Z,15.93
2018-10-16T02:06:37.296Z,16.90
2018-10-16T02:09:08.620Z,14.63
2018-10-16T02:11:37.268Z,14.20
2018-10-16T02:14:05.833Z,16.77
2018-10-16T02:16:34.480Z,18.53
2018-10-16T02:19:03.093Z,16.87
2018-10-16T02:21:31.642Z,15.60
2018-10-16T02:24:00.173Z,16.97
2018-10-16T02:26:28.809Z,17.40
2018-10-16T02:28:57.326Z,14.77
2018-10-16T02:31:26.059Z,16.73
2018-10-16T02:33:54.568Z,20.30
2018-10-16T02:36:23.104Z,17.03
2018-10-16T02:38:51.772Z,16.00
2018-10-16T02:41:20.381Z,20.10
2018-10-16T02:43:49.051Z,17.93
2018-10-16T02:46:17.604Z,16.87
2018-10-16T02:48:46.125Z,18.97
2018-10-16T02:51:14.671Z,16.30
2018-10-16T02:53:43.216Z,18.60
2018-10-16T02:56:11.770Z,17.77
2018-10-16T02:58:40.303Z,19.37
2018-10-16T03:01:09.349Z,16.97
2018-10-16T03:03:39.485Z,16.30
2018-10-16T03:06:08.175Z,16.43
2018-10-16T03:08:37.470Z,16.67
2018-10-16T03:11:06.349Z,18.17
2018-10-16T03:13:35.033Z,16.03
2018-10-16T03:16:03.605Z,16.70
2018-10-16T03:18:32.514Z,16.57
2018-10-16T03:21:01.046Z,17.70
2018-10-16T03:23:29.612Z,15.70
2018-10-16T03:25:58.179Z,14.10
2018-10-16T03:28:26.689Z,18.80
2018-10-16T03:30:55.247Z,15.00
2018-10-16T03:33:23.978Z,15.73
2018-10-16T03:35:52.540Z,20.30
2018-10-16T03:38:21.053Z,16.93
2018-10-16T03:40:49.710Z,20.03
2018-10-16T03:43:18.311Z,15.20
2018-10-16T03:45:46.875Z,16.83
2018-10-16T03:48:15.471Z,15.57
2018-10-16T03:50:44.053Z,15.37
2018-10-16T03:53:12.632Z,15.83
2018-10-16T03:55:41.308Z,15.10
2018-10-16T03:58:09.920Z,18.73
2018-10-16T04:00:38.451Z,18.03
2018-10-16T04:03:07.002Z,18.13
2018-10-16T04:05:35.575Z,18.73
2018-10-16T04:08:04.168Z,19.77
2018-10-16T04:10:33.154Z,14.63
2018-10-16T04:13:02.308Z,17.63
2018-10-16T04:15:30.869Z,17.25
2018-10-16T04:17:59.459Z,16.30
2018-10-16T04:20:28.575Z,18.20
2018-10-16T04:22:57.165Z,18.73
2018-10-16T04:25:25.766Z,18.37
2018-10-16T04:27:54.398Z,16.37
2018-10-16T04:30:23.089Z,23.40
2018-10-16T04:32:51.585Z,18.83
2018-10-16T04:35:20.133Z,18.27
2018-10-16T04:37:48.770Z,19.57
2018-10-16T04:40:17.312Z,17.47
2018-10-16T04:42:45.869Z,18.37
2018-10-16T04:45:14.385Z,17.13
2018-10-16T04:47:43.137Z,21.80
2018-10-16T04:50:12.000Z,16.95
2018-10-16T04:52:41.020Z,18.90
2018-10-16T04:55:09.671Z,19.15
2018-10-16T04:57:38.282Z,16.23
2018-10-16T05:00:07.962Z,22.73
2018-10-16T05:02:37.134Z,21.07
2018-10-16T05:05:06.876Z,15.33
2018-10-16T05:07:35.425Z,19.43
2018-10-16T05:10:04.045Z,18.80
2018-10-16T05:12:32.566Z,18.30
2018-10-16T05:15:01.125Z,18.60
2018-10-16T05:17:29.805Z,16.83
2018-10-16T05:19:58.304Z,19.07
2018-10-16T05:22:27.120Z,16.53
2018-10-16T05:24:55.798Z,16.60
2018-10-16T05:27:24.334Z,18.90
2018-10-16T05:29:53.450Z,17.97
2018-10-16T05:32:22.022Z,18.23
2018-10-16T05:34:50.613Z,19.00
2018-10-16T05:37:19.166Z,18.80
2018-10-16T05:39:47.713Z,18.93
2018-10-16T05:42:16.273Z,18.57
2018-10-16T05:44:44.842Z,19.37
2018-10-16T05:47:13.363Z,21.27
2018-10-16T05:49:41.943Z,19.27
2018-10-16T05:52:10.626Z,20.07
2018-10-16T05:54:39.424Z,21.63
2018-10-16T05:57:08.082Z,21.10
2018-10-16T05:59:36.605Z,20.93
2018-10-16T06:02:05.301Z,18.20
2018-10-16T06:04:33.885Z,22.27
2018-10-16T06:07:02.528Z,19.33
2018-10-16T06:09:31.121Z,19.93
2018-10-16T06:11:59.675Z,19.57
2018-10-16T06:14:28.232Z,20.50
2018-10-16T06:16:56.908Z,21.57
2018-10-16T06:19:25.440Z,19.43
2018-10-16T06:21:54.059Z,18.53
2018-10-16T06:24:22.743Z,20.57
2018-10-16T06:26:52.137Z,19.87
2018-10-16T06:29:20.744Z,16.47
2018-10-16T06:31:49.277Z,19.77
2018-10-16T06:34:17.818Z,26.53
2018-10-16T06:36:46.566Z,24.87
2018-10-16T06:39:15.160Z,24.67
2018-10-16T06:41:43.955Z,24.80
2018-10-16T06:44:12.517Z,20.00
2018-10-16T06:46:41.148Z,23.23
2018-10-16T06:49:09.799Z,21.27
2018-10-16T06:51:38.362Z,26.30
2018-10-16T06:54:07.476Z,21.80
2018-10-16T06:56:36.049Z,22.27
2018-10-16T06:59:04.811Z,25.47
2018-10-16T07:01:33.368Z,21.03
2018-10-16T07:04:01.901Z,22.43
2018-10-16T07:06:31.719Z,26.33
2018-10-16T07:09:00.245Z,21.67
2018-10-16T07:11:28.813Z,22.40
2018-10-16T07:13:57.883Z,25.73
2018-10-16T07:16:26.476Z,22.93
2018-10-16T07:18:55.072Z,23.10
2018-10-16T07:21:23.661Z,22.87
2018-10-16T07:23:52.276Z,28.47
2018-10-16T07:26:20.776Z,26.23
2018-10-16T07:28:49.369Z,24.27
2018-10-16T07:31:17.932Z,26.67
2018-10-16T07:33:49.231Z,21.07
2018-10-16T07:36:17.809Z,22.67
2018-10-16T07:38:46.578Z,28.30
2018-10-16T07:41:15.174Z,27.47
2018-10-16T07:43:43.792Z,25.87
2018-10-16T07:46:12.437Z,27.37
2018-10-16T07:48:41.175Z,28.23
2018-10-16T07:51:09.544Z,29.07
2018-10-16T07:53:38.088Z,25.63
2018-10-16T07:56:06.684Z,24.40
2018-10-16T07:58:35.249Z,22.33
2018-10-16T08:01:03.837Z,23.10
2018-10-16T08:03:32.441Z,25.07
2018-10-16T08:06:00.977Z,22.13
2018-10-16T08:08:29.563Z,24.97
2018-10-16T08:10:58.102Z,24.30
2018-10-16T08:13:26.680Z,23.10
2018-10-16T08:15:55.962Z,28.80
2018-10-16T08:18:24.501Z,24.27
2018-10-16T08:20:53.265Z,24.27
2018-10-16T08:23:21.962Z,26.93
2018-10-16T08:25:50.749Z,26.33
2018-10-16T08:28:19.617Z,21.97
2018-10-16T08:30:48.173Z,26.20
2018-10-16T08:33:16.716Z,29.13
2018-10-16T08:35:45.332Z,25.70
2018-10-16T08:38:34.160Z,27.20
2018-10-16T08:41:03.601Z,24.13
2018-10-16T08:43:47.317Z,23.50
2018-10-16T08:46:27.857Z,27.73
2018-10-16T08:49:07.841Z,23.20
2018-10-16T08:51:40.572Z,31.33
2018-10-16T08:54:09.689Z,25.43
2018-10-16T08:56:38.208Z,23.83
2018-10-16T08:59:06.844Z,31.37
2018-10-16T09:01:35.512Z,24.23
2018-10-16T09:04:04.474Z,23.23
2018-10-16T09:06:33.403Z,24.60
2018-10-16T09:09:02.722Z,25.12
2018-10-16T09:11:31.239Z,25.23
2018-10-16T09:13:59.811Z,28.02
2018-10-16T09:16:28.360Z,22.25
2018-10-16T09:18:57.417Z,23.07
2018-10-16T09:21:26.038Z,28.23
2018-10-16T09:23:54.571Z,27.20
2018-10-16T09:26:23.175Z,22.60
2018-10-16T09:28:51.717Z,24.18
2018-10-16T09:31:20.246Z,22.20
2018-10-16T09:33:48.810Z,20.80
2018-10-16T09:36:17.360Z,24.63
2018-10-16T09:38:45.931Z,22.73
2018-10-16T09:41:14.498Z,24.37
2018-10-16T09:43:43.137Z,21.70
2018-10-16T09:46:11.827Z,22.15
2018-10-16T09:48:40.378Z,17.57
2018-10-16T09:51:08.933Z,19.05
2018-10-16T09:53:37.492Z,19.27
2018-10-16T09:56:06.151Z,18.60
2018-10-16T09:58:34.669Z,21.73
2018-10-16T10:01:08.534Z,18.57
2018-10-16T10:03:37.173Z,19.07
2018-10-16T10:06:06.038Z,24.65
2018-10-16T10:08:34.592Z,17.85
2018-10-16T10:11:03.195Z,23.35
2018-10-16T10:13:31.692Z,21.10
2018-10-16T10:16:00.642Z,19.65
2018-10-16T10:18:29.286Z,18.48
2018-10-16T10:20:57.854Z,14.43
2018-10-16T10:23:26.473Z,17.02
2018-10-16T10:25:55.208Z,15.95
2018-10-16T10:28:23.828Z,22.35
2018-10-16T10:30:52.412Z,23.67
2018-10-16T10:33:21.144Z,17.23
2018-10-16T10:35:49.706Z,22.15
2018-10-16T10:38:18.313Z,16.70
2018-10-16T10:40:46.854Z,17.82
2018-10-16T10:43:15.776Z,20.82
2018-10-16T10:45:44.420Z,15.20
2018-10-16T10:48:12.935Z,15.35
2018-10-16T10:50:41.674Z,19.27
2018-10-16T10:53:10.076Z,18.32
2018-10-16T10:55:38.696Z,18.55
2018-10-16T10:58:07.523Z,16.90
2018-10-16T11:00:36.169Z,14.83
2018-10-16T11:03:04.925Z,12.23
2018-10-16T11:05:33.492Z,12.35
2018-10-16T11:08:02.025Z,13.28
2018-10-16T11:10:30.590Z,11.70
2018-10-16T11:12:59.190Z,13.75
2018-10-16T11:15:27.779Z,15.55
2018-10-16T11:17:56.342Z,13.88
2018-10-16T11:20:24.902Z,18.07
2018-10-16T11:22:53.494Z,15.70
2018-10-16T11:25:22.121Z,20.80
2018-10-16T11:27:50.764Z,10.98
2018-10-16T11:30:19.352Z,11.95
2018-10-16T11:32:47.921Z,13.05
2018-10-16T11:35:16.472Z,13.32
2018-10-16T11:37:45.021Z,13.62
2018-10-16T11:40:13.604Z,14.65
2018-10-16T11:42:43.503Z,13.75
2018-10-16T11:45:12.254Z,14.60
2018-10-16T11:47:40.700Z,13.50
2018-10-16T11:50:10.808Z,13.28
2018-10-16T11:52:39.644Z,12.40
2018-10-16T11:55:09.082Z,12.40
2018-10-16T11:57:37.893Z,12.47
2018-10-16T12:00:16.352Z,13.75
2018-10-16T12:02:45.204Z,14.43
2018-10-16T12:05:14.009Z,12.60
2018-10-16T12:07:42.556Z,12.58
2018-10-16T12:10:11.412Z,14.43
2018-10-16T12:12:39.985Z,12.82
2018-10-16T12:15:08.744Z,13.38
2018-10-16T12:17:48.021Z,15.93
2018-10-16T12:20:27.119Z,15.68
2018-10-16T12:22:55.934Z,12.18
2018-10-16T12:25:24.734Z,17.52
2018-10-16T12:27:53.292Z,16.55
2018-10-16T12:30:21.986Z,20.92
2018-10-16T12:32:50.545Z,16.93
2018-10-16T12:35:19.294Z,13.50
2018-10-16T12:37:48.012Z,16.15
2018-10-16T12:40:16.646Z,15.68
2018-10-16T12:42:45.127Z,16.10
2018-10-16T12:45:14.233Z,16.80
2018-10-16T12:47:42.802Z,17.48
2018-10-16T12:50:11.392Z,16.55
2018-10-16T12:52:39.932Z,19.23
2018-10-16T12:55:08.667Z,12.90
2018-10-16T12:57:37.620Z,17.95
2018-10-16T13:00:06.809Z,17.50
2018-10-16T13:02:35.405Z,29.02
2018-10-16T13:05:03.998Z,14.93
2018-10-16T13:07:39.964Z,15.38
2018-10-16T13:10:17.626Z,20.88
2018-10-16T13:12:47.249Z,16.65
2018-10-16T13:15:16.906Z,22.30
2018-10-16T13:17:45.446Z,20.32
2018-10-16T13:20:15.059Z,17.52
2018-10-16T13:22:45.354Z,19.42
2018-10-16T13:25:14.934Z,22.87
2018-10-16T13:27:43.708Z,20.43
2018-10-16T13:30:14.365Z,19.92
2018-10-16T13:32:43.547Z,19.05
2018-10-16T13:35:16.134Z,13.58
2018-10-16T13:37:45.338Z,23.15
2018-10-16T13:40:14.084Z,16.65
2018-10-16T13:42:42.761Z,14.55
2018-10-16T13:45:12.457Z,12.30
2018-10-16T13:47:41.014Z,18.20
2018-10-16T13:50:12.418Z,13.93
2018-10-16T13:52:41.246Z,14.87
2018-10-16T13:55:10.752Z,15.00
2018-10-16T13:57:39.449Z,15.05
2018-10-16T14:00:13.443Z,13.85
2018-10-16T14:02:43.494Z,14.00
2018-10-16T14:05:12.398Z,17.80
2018-10-16T14:07:41.259Z,16.07
2018-10-16T14:10:11.376Z,11.43
2018-10-16T14:12:41.731Z,15.30
2018-10-16T14:15:11.141Z,13.20
2018-10-16T14:17:40.130Z,14.55
2018-10-16T14:20:09.486Z,12.65
2018-10-16T14:22:39.282Z,16.30
2018-10-16T14:25:09.068Z,17.52
2018-10-16T14:27:38.177Z,11.60
2018-10-16T14:30:08.029Z,12.28
2018-10-16T14:32:36.655Z,14.18
2018-10-16T14:35:06.337Z,10.95
2018-10-16T14:37:34.990Z,13.85
2018-10-16T14:40:03.594Z,12.75
2018-10-16T14:42:32.148Z,12.40
2018-10-16T14:45:00.818Z,12.93
2018-10-16T14:47:29.418Z,14.85
2018-10-16T14:49:58.080Z,13.05
2018-10-16T14:52:26.615Z,13.98
2018-10-16T14:54:55.166Z,18.25
2018-10-16T14:57:24.096Z,14.93
2018-10-16T14:59:53.415Z,14.15
2018-10-16T15:02:21.948Z,15.18
2018-10-16T15:04:50.530Z,10.93
2018-10-16T15:07:19.209Z,11.20
2018-10-16T15:09:47.918Z,11.53
2018-10-16T15:12:16.521Z,9.95
2018-10-16T15:14:45.226Z,13.58
2018-10-16T15:17:13.820Z,11.53
2018-10-16T15:19:42.459Z,16.25
2018-10-16T15:22:11.102Z,13.88
2018-10-16T15:24:39.591Z,9.78
2018-10-16T15:27:08.360Z,10.25
2018-10-16T15:29:36.948Z,13.95
2018-10-16T15:32:05.797Z,15.70
2018-10-16T15:34:34.592Z,17.98
2018-10-16T15:37:03.152Z,14.55
2018-10-16T15:39:31.813Z,17.80
2018-10-16T15:42:00.412Z,14.43
2018-10-16T15:44:29.514Z,56.28
2018-10-16T15:46:58.217Z,15.63
2018-10-16T15:49:26.814Z,13.45
2018-10-16T15:51:55.470Z,10.90
2018-10-16T15:54:24.061Z,12.73
2018-10-16T15:56:52.636Z,12.78
2018-10-16T15:59:21.284Z,15.15
2018-10-16T16:01:49.989Z,13.32
2018-10-16T16:04:18.653Z,11.57
2018-10-16T16:06:47.291Z,13.15
2018-10-16T16:09:15.927Z,11.57
2018-10-16T16:11:44.526Z,17.65
2018-10-16T16:14:13.150Z,15.75
2018-10-16T16:16:41.731Z,16.90
2018-10-16T16:19:10.285Z,15.60
2018-10-16T16:21:38.945Z,12.78
2018-10-16T16:24:07.640Z,17.70
2018-10-16T16:26:36.277Z,13.08
2018-10-16T16:29:04.949Z,17.05
2018-10-16T16:31:33.625Z,18.50
2018-10-16T16:34:02.376Z,16.00
2018-10-16T16:36:30.968Z,17.55
2018-10-16T16:38:59.550Z,13.10
2018-10-16T16:41:28.107Z,16.93
2018-10-16T16:43:56.860Z,12.33
2018-10-16T16:46:25.390Z,16.25
2018-10-16T16:48:53.982Z,13.18
2018-10-16T16:51:22.661Z,17.65
2018-10-16T16:53:51.203Z,18.48
2018-10-16T16:56:19.778Z,15.45
2018-10-16T16:58:48.389Z,12.82
2018-10-16T17:01:16.930Z,14.58
2018-10-16T17:03:45.513Z,22.37
2018-10-16T17:06:14.149Z,16.50
2018-10-16T17:08:42.728Z,13.32
2018-10-16T17:11:11.834Z,13.25
2018-10-16T17:13:40.481Z,14.13
2018-10-16T17:16:09.577Z,15.35
2018-10-16T17:18:38.249Z,13.72
2018-10-16T17:21:07.086Z,18.02
2018-10-16T17:23:35.727Z,14.83
2018-10-16T17:26:04.786Z,12.88
2018-10-16T17:28:34.138Z,13.55
2018-10-16T17:31:03.163Z,14.95
2018-10-16T17:33:33.356Z,15.88
2018-10-16T17:36:02.474Z,15.32
2018-10-16T17:38:31.378Z,16.00
2018-10-16T17:40:59.961Z,10.40
2018-10-16T17:43:28.782Z,14.45
2018-10-16T17:45:57.388Z,14.78
2018-10-16T17:48:25.946Z,17.07
2018-10-16T17:50:54.561Z,14.28
2018-10-16T17:53:23.121Z,16.35
2018-10-16T17:55:51.632Z,15.63
2018-10-16T17:58:20.255Z,12.20
2018-10-16T18:00:48.984Z,13.58
2018-10-16T18:03:17.579Z,13.15
2018-10-16T18:05:46.205Z,14.98
2018-10-16T18:08:14.800Z,18.05
2018-10-16T18:10:43.385Z,11.45
2018-10-16T18:13:12.499Z,14.23
2018-10-16T18:15:42.699Z,11.12
2018-10-16T18:18:11.357Z,14.35
2018-10-16T18:20:39.927Z,11.48
2018-10-16T18:23:08.910Z,13.05
2018-10-16T18:25:38.038Z,10.38
2018-10-16T18:28:06.951Z,10.48
2018-10-16T18:30:35.503Z,10.08
2018-10-16T18:33:04.166Z,11.53
2018-10-16T18:35:32.707Z,11.05
2018-10-16T18:38:01.319Z,13.35
2018-10-16T18:40:30.943Z,10.65
2018-10-16T18:42:59.568Z,12.00
2018-10-16T18:45:28.267Z,13.65
2018-10-16T18:47:57.016Z,12.73
2018-10-16T18:50:25.560Z,9.05
2018-10-16T18:52:54.252Z,12.47
2018-10-16T18:55:22.864Z,13.05
2018-10-16T18:57:51.437Z,10.25
2018-10-16T19:00:20.489Z,12.50
2018-10-16T19:02:50.200Z,9.90
2018-10-16T19:05:18.932Z,11.75
2018-10-16T19:07:48.705Z,8.85
2018-10-16T19:10:17.206Z,8.83
2018-10-16T19:12:45.863Z,9.10
2018-10-16T19:15:17.230Z,13.68
2018-10-16T19:17:46.727Z,9.68
2018-10-16T19:20:16.404Z,10.95
2018-10-16T19:22:46.160Z,12.35
2018-10-16T19:25:17.591Z,12.65
2018-10-16T19:27:46.488Z,10.10
2018-10-16T19:30:15.070Z,12.30
2018-10-16T19:32:43.813Z,10.13
2018-10-16T19:35:13.676Z,8.58
2018-10-16T19:37:42.482Z,8.88
2018-10-16T19:40:11.157Z,11.48
2018-10-16T19:42:39.740Z,11.73
2018-10-16T19:45:08.881Z,10.08
2018-10-16T19:47:37.556Z,8.40
2018-10-16T19:50:06.938Z,9.95
2018-10-16T19:52:35.521Z,10.78
2018-10-16T19:55:04.249Z,12.03
2018-10-16T19:57:32.797Z,8.78
2018-10-16T20:00:01.376Z,10.13
2018-10-16T20:02:29.959Z,9.40
2018-10-16T20:04:58.537Z,13.48
2018-10-16T20:07:27.121Z,8.73
2018-10-16T20:09:57.772Z,10.98
2018-10-16T20:12:26.376Z,8.00
2018-10-16T20:14:54.927Z,9.83
2018-10-16T20:17:23.527Z,11.68
2018-10-16T20:19:52.162Z,11.68
2018-10-16T20:22:20.741Z,8.50
2018-10-16T20:24:49.472Z,8.13
2018-10-16T20:27:17.999Z,9.33
2018-10-16T20:29:46.598Z,11.05
2018-10-16T20:32:15.203Z,9.03
2018-10-16T20:34:43.813Z,7.28
2018-10-16T20:37:12.429Z,9.58
2018-10-16T20:39:41.009Z,7.55
2018-10-16T20:42:09.690Z,8.90
2018-10-16T20:44:38.190Z,9.33
2018-10-16T20:47:06.780Z,7.15
2018-10-16T20:49:35.316Z,8.00
2018-10-16T20:52:03.897Z,10.13
2018-10-16T20:54:32.530Z,8.48
2018-10-16T20:57:01.066Z,9.60
2018-10-16T20:59:29.712Z,9.05
2018-10-16T21:01:58.264Z,10.82
2018-10-16T21:04:26.873Z,8.58
2018-10-16T21:06:55.643Z,8.70
2018-10-16T21:09:24.020Z,8.60
2018-10-16T21:11:52.951Z,9.48
2018-10-16T21:14:21.539Z,7.53
2018-10-16T21:16:50.482Z,8.70
2018-10-16T21:19:19.117Z,8.50
2018-10-16T21:21:47.769Z,8.50
2018-10-16T21:24:16.302Z,12.05
2018-10-16T21:26:44.949Z,9.88
2018-10-16T21:29:13.501Z,8.50
2018-10-16T21:31:42.016Z,11.33
2018-10-16T21:34:10.623Z,8.33
2018-10-16T21:36:39.154Z,12.88
2018-10-16T21:39:07.799Z,8.75
2018-10-16T21:41:37.517Z,8.30
2018-10-16T21:44:06.390Z,10.60
2018-10-16T21:46:35.010Z,10.20
2018-10-16T21:49:03.715Z,9.95
2018-10-16T21:51:32.249Z,7.60
2018-10-16T21:54:00.764Z,8.18
2018-10-16T21:56:29.293Z,9.20
2018-10-16T21:58:57.910Z,8.68
2018-10-16T22:01:31.599Z,7.78
2018-10-16T22:04:00.189Z,8.65
2018-10-16T22:06:28.872Z,10.10
2018-10-16T22:08:57.453Z,8.48
2018-10-16T22:11:25.953Z,9.88
2018-10-16T22:13:54.479Z,7.60
2018-10-16T22:16:23.048Z,8.83
2018-10-16T22:18:51.603Z,8.55
2018-10-16T22:21:20.176Z,9.23
2018-10-16T22:23:48.761Z,8.40
2018-10-16T22:26:17.289Z,8.80
2018-10-16T22:28:45.811Z,6.67
2018-10-16T22:31:14.438Z,7.17
2018-10-16T22:33:42.979Z,7.60
2018-10-16T22:36:11.501Z,7.53
2018-10-16T22:38:40.055Z,7.17
2018-10-16T22:41:08.963Z,7.42
2018-10-16T22:43:37.439Z,8.45
2018-10-16T22:46:06.364Z,7.70
2018-10-16T22:48:34.928Z,6.87
2018-10-16T22:51:03.553Z,7.90
2018-10-16T22:53:32.078Z,8.13
2018-10-16T22:56:00.701Z,9.13
2018-10-16T22:58:29.313Z,8.15
2018-10-16T23:00:57.907Z,11.90
2018-10-16T23:03:26.481Z,10.03
2018-10-16T23:05:56.427Z,7.85
2018-10-16T23:08:24.988Z,7.87
2018-10-16T23:10:53.564Z,9.30
2018-10-16T23:13:22.060Z,7.12
2018-10-16T23:15:50.596Z,9.87
2018-10-16T23:18:19.117Z,7.03
2018-10-16T23:20:47.708Z,7.40
2018-10-16T23:23:16.372Z,7.35
2018-10-16T23:25:44.831Z,7.67
2018-10-16T23:28:13.411Z,8.10
2018-10-16T23:30:41.905Z,7.80
2018-10-16T23:33:10.467Z,9.43
2018-10-16T23:35:39.000Z,7.95
2018-10-16T23:38:07.570Z,7.92
2018-10-16T23:40:36.104Z,7.92
2018-10-16T23:43:04.873Z,10.93
2018-10-16T23:45:33.356Z,10.90
2018-10-16T23:48:01.907Z,10.58
2018-10-16T23:50:30.490Z,9.10
2018-10-16T23:52:59.071Z,8.60
2018-10-16T23:55:27.607Z,11.07
2018-10-16T23:57:56.193Z,10.70
